Time;durP1;ratioP1;P1;durP2;ratioP2;P2;SDS_P1;SDS_P2;PMS_P1;PMS_P2;Temp;Humidity;BMP_temperature;BMP_pressure;BME280_temperature;BME280_humidity;BME280_pressure;Samples;Min_cycle;Max_cycle;Signal;HPM_P1;HPM_P2
2023/01/07 00:00:14;;;;;;;5.57;2.67;;;;;;;;;;5010683;28;20490;-75
2023/01/07 00:02:42;;;;;;;4.35;3.13;;;;;;;;;;5010848;28;20080;-75
2023/01/07 00:05:10;;;;;;;3.63;3.08;;;;;;;;;;5026801;28;20100;-75
2023/01/07 00:07:37;;;;;;;3.58;2.75;;;;;;;;;;5034569;28;20053;-75
2023/01/07 00:10:04;;;;;;;3.97;2.80;;;;;;;;;;5034659;28;20136;-75
2023/01/07 00:12:31;;;;;;;2.83;2.53;;;;;;;;;;5034171;28;20054;-75
2023/01/07 00:14:58;;;;;;;3.75;2.58;;;;;;;;;;5033757;28;20076;-75
2023/01/07 00:17:25;;;;;;;3.25;2.60;;;;;;;;;;5034234;28;20506;-75
2023/01/07 00:19:54;;;;;;;3.38;3.00;;;;;;;;;;5035367;28;20467;-75
2023/01/07 00:22:21;;;;;;;4.10;3.22;;;;;;;;;;5033875;28;20497;-75
2023/01/07 00:24:48;;;;;;;4.05;2.80;;;;;;;;;;5033618;28;20046;-75
2023/01/07 00:27:15;;;;;;;2.83;2.55;;;;;;;;;;5034317;28;20057;-75
2023/01/07 00:29:42;;;;;;;3.05;2.33;;;;;;;;;;5034139;28;20057;-75
2023/01/07 00:32:09;;;;;;;2.75;2.45;;;;;;;;;;5034024;28;20053;-75
2023/01/07 00:34:37;;;;;;;2.78;2.58;;;;;;;;;;5023843;28;20126;-74
2023/01/07 00:39:59;;;;;;;3.65;2.95;;;;;;;;;;5032625;28;20045;-75
2023/01/07 00:45:11;;;;;;;2.92;2.53;;;;;;;;;;5033162;28;20091;-75
2023/01/07 00:47:38;;;;;;;2.97;2.50;;;;;;;;;;5033580;28;20085;-75
2023/01/07 00:50:05;;;;;;;2.92;2.22;;;;;;;;;;5033900;28;20144;-75
2023/01/07 00:52:34;;;;;;;2.97;2.60;;;;;;;;;;5033279;28;20056;-75
2023/01/07 00:55:01;;;;;;;3.20;2.55;;;;;;;;;;5020295;28;20060;-75
2023/01/07 00:57:28;;;;;;;3.03;2.70;;;;;;;;;;5013816;28;20146;-75
2023/01/07 00:59:55;;;;;;;3.00;2.55;;;;;;;;;;5013951;28;20058;-75
2023/01/07 01:02:22;;;;;;;2.65;2.30;;;;;;;;;;5013642;28;20787;-75
2023/01/07 01:04:49;;;;;;;3.22;2.17;;;;;;;;;;5033988;28;20605;-75
2023/01/07 01:07:16;;;;;;;2.90;2.40;;;;;;;;;;5033412;28;20056;-75
2023/01/07 01:09:44;;;;;;;3.03;2.33;;;;;;;;;;5033302;28;20068;-75
2023/01/07 01:12:11;;;;;;;2.30;2.10;;;;;;;;;;5033283;28;20054;-74
2023/01/07 01:14:38;;;;;;;2.50;2.30;;;;;;;;;;5023467;28;20527;-74
2023/01/07 01:17:06;;;;;;;2.67;2.25;;;;;;;;;;5013293;28;20054;-74
2023/01/07 01:19:33;;;;;;;2.65;2.10;;;;;;;;;;5023662;28;20045;-74
2023/01/07 01:22:00;;;;;;;2.83;2.38;;;;;;;;;;5033347;28;20083;-75
2023/01/07 01:24:27;;;;;;;2.30;2.10;;;;;;;;;;5032234;28;20053;-75
2023/01/07 01:26:55;;;;;;;2.90;2.30;;;;;;;;;;5033198;28;20141;-75
2023/01/07 01:29:22;;;;;;;2.40;2.20;;;;;;;;;;5033179;28;20057;-75
2023/01/07 01:31:50;;;;;;;2.35;2.10;;;;;;;;;;5032718;28;20057;-74
2023/01/07 01:34:17;;;;;;;2.63;2.08;;;;;;;;;;5026386;28;20406;-75
2023/01/07 01:36:44;;;;;;;2.58;2.20;;;;;;;;;;5020334;28;20520;-75
2023/01/07 01:39:11;;;;;;;2.30;2.10;;;;;;;;;;5033070;28;20405;-75
2023/01/07 01:41:38;;;;;;;2.83;2.25;;;;;;;;;;5032883;28;20410;-75
2023/01/07 01:44:34;;;;;;;2.40;2.13;;;13.80;75.90;;;;;;5032291;28;20474;-75
2023/01/07 01:47:02;;;;;;;3.25;2.10;;;;;;;;;;5032619;28;20136;-74
2023/01/07 01:49:30;;;;;;;2.40;1.85;;;13.70;75.30;;;;;;5032572;28;20506;-75
2023/01/07 01:51:59;;;;;;;2.40;2.17;;;;;;;;;;5032883;28;20473;-75
2023/01/07 01:54:26;;;;;;;2.20;2.00;;;;;;;;;;5024948;28;20124;-75
2023/01/07 01:56:53;;;;;;;6.43;2.17;;;;;;;;;;5012840;28;20054;-74
2023/01/07 01:59:22;;;;;;;2.17;1.80;;;13.70;75.30;;;;;;5019853;28;20124;-75
2023/01/07 02:01:50;;;;;;;2.47;1.85;;;;;;;;;;5032553;28;20057;-75
2023/01/07 02:04:19;;;;;;;2.05;1.85;;;13.70;73.90;;;;;;5031583;28;20055;-75
2023/01/07 02:07:03;;;;;;;2.58;2.10;;;13.70;76.20;;;;;;5032310;28;20161;-75
2023/01/07 02:09:30;;;;;;;2.30;1.98;;;;;;;;;;5012608;28;20064;-75
2023/01/07 02:12:00;;;;;;;1.98;1.77;;;;;;;;;;5012382;28;20141;-74
2023/01/07 02:14:39;;;;;;;2.70;1.83;;;13.70;75.20;;;;;;5018761;28;20056;-75
2023/01/07 02:17:08;;;;;;;2.40;2.00;;;;;;;;;;5031868;28;20053;-75
2023/01/07 02:20:00;;;;;;;2.75;1.90;;;;;;;;;;5032138;28;20053;-75
2023/01/07 02:22:45;;;;;;;2.00;1.80;;;13.70;76.30;;;;;;5031811;28;20405;-75
2023/01/07 02:25:21;;;;;;;3.35;1.80;;;13.70;76.30;;;;;;5031223;28;20060;-75
2023/01/07 02:28:01;;;;;;;2.65;2.20;;;13.80;76.30;;;;;;5031000;28;20085;-75
2023/01/07 02:30:43;;;;;;;2.97;2.00;;;13.70;76.30;;;;;;5031999;28;20053;-75
2023/01/07 02:33:19;;;;;;;1.92;1.73;;;;;;;;;;5031727;28;20140;-75
2023/01/07 02:36:22;;;;;;;2.28;1.85;;;13.70;76.20;;;;;;5030302;28;20390;-75
2023/01/07 02:39:07;;;;;;;2.15;1.85;;;13.70;74.10;;;;;;4955492;28;20055;-75
2023/01/07 02:41:37;;;;;;;2.50;2.00;;;;;;;;;;5026150;28;20057;-75
2023/01/07 02:44:04;;;;;;;2.47;1.83;;;;;;;;;;5031015;28;20152;-75
2023/01/07 02:46:33;;;;;;;2.05;1.55;;;13.70;75.70;;;;;;5031083;28;20041;-75
2023/01/07 02:49:02;;;;;;;2.97;2.13;;;;;;;;;;5031688;28;20058;-75
2023/01/07 02:51:33;;;;;;;2.55;1.83;;;;;;;;;;5031317;28;20136;-75
2023/01/07 02:54:00;;;;;;;1.80;1.65;;;;;;;;;;5029014;28;20081;-75
2023/01/07 02:56:32;;;;;;;2.17;1.73;;;13.70;76.30;;;;;;5024582;28;20076;-75
2023/01/07 02:59:05;;;;;;;2.28;1.80;;;;;;;;;;5031283;28;20077;-75
2023/01/07 03:01:55;;;;;;;2.15;1.92;;;13.60;76.20;;;;;;5031442;28;20061;-75
2023/01/07 03:04:28;;;;;;;1.83;1.63;;;;;;;;;;5030354;28;20059;-75
2023/01/07 03:06:57;;;;;;;1.90;1.65;;;;;;;;;;5031400;28;20072;-75
2023/01/07 03:09:26;;;;;;;1.83;1.67;;;;;;;;;;5031113;28;20136;-75
2023/01/07 03:11:57;;;;;;;2.08;1.88;;;13.60;76.20;;;;;;5031322;28;20049;-75
2023/01/07 03:14:26;;;;;;;1.98;1.70;;;;;;;;;;5025690;28;20054;-74
2023/01/07 03:16:53;;;;;;;2.03;1.70;;;;;;;;;;5011471;28;20402;-74
2023/01/07 03:19:21;;;;;;;3.00;1.80;;;;;;;;;;5018736;28;20570;-75
2023/01/07 03:21:49;;;;;;;2.13;1.70;;;;;;;;;;5030965;28;20061;-75
2023/01/07 03:24:17;;;;;;;2.30;1.73;;;;;;;;;;5030226;28;20402;-75
2023/01/07 03:26:44;;;;;;;2.15;1.65;;;;;;;;;;5030544;28;20138;-75
2023/01/07 03:29:12;;;;;;;2.08;1.88;;;;;;;;;;5030532;28;20056;-74
2023/01/07 03:31:40;;;;;;;1.80;1.60;;;;;;;;;;5030630;28;20528;-74
2023/01/07 03:34:08;;;;;;;1.58;1.48;;;;;;;;;;5028205;28;20144;-75
2023/01/07 03:36:36;;;;;;;2.55;1.70;;;;;;;;;;5017111;28;20143;-74
2023/01/07 03:39:05;;;;;;;1.90;1.50;;;;;;;;;;5030827;28;20057;-74
2023/01/07 03:44:16;;;;;;;2.08;1.60;;;;;;;;;;5030305;28;20041;-75
2023/01/07 03:46:43;;;;;;;1.90;1.60;;;;;;;;;;5030594;28;20053;-75
2023/01/07 03:49:11;;;;;;;1.98;1.73;;;;;;;;;;5030634;28;20053;-75
2023/01/07 03:51:38;;;;;;;1.92;1.70;;;;;;;;;;5030761;28;20045;-75
2023/01/07 03:54:06;;;;;;;1.98;1.75;;;;;;;;;;5029638;28;20136;-75
2023/01/07 03:56:33;;;;;;;1.77;1.45;;;;;;;;;;5030838;28;20076;-75
2023/01/07 03:59:00;;;;;;;1.98;1.73;;;;;;;;;;5030469;28;20141;-75
2023/01/07 04:01:27;;;;;;;2.92;1.85;;;;;;;;;;5030814;28;20433;-74
2023/01/07 04:03:54;;;;;;;1.98;1.70;;;;;;;;;;5030105;28;20486;-74
2023/01/07 04:06:21;;;;;;;1.77;1.45;;;;;;;;;;5030154;28;20129;-74
2023/01/07 04:08:48;;;;;;;2.83;1.63;;;;;;;;;;5030577;28;20059;-75
2023/01/07 04:11:17;;;;;;;1.70;1.60;;;;;;;;;;5030560;28;20075;-75
2023/01/07 04:13:44;;;;;;;1.70;1.52;;;;;;;;;;5030178;28;20136;-75
2023/01/07 04:16:11;;;;;;;1.70;1.60;;;;;;;;;;5012098;28;20129;-75
2023/01/07 04:18:38;;;;;;;1.77;1.60;;;;;;;;;;5012850;28;20068;-74
2023/01/07 04:21:05;;;;;;;2.15;1.73;;;;;;;;;;5030577;28;20060;-75
2023/01/07 04:23:33;;;;;;;2.00;1.70;;;;;;;;;;5030003;28;20049;-74
2023/01/07 04:26:00;;;;;;;2.00;1.80;;;;;;;;;;5029399;28;20050;-75
2023/01/07 04:28:28;;;;;;;1.90;1.70;;;;;;;;;;5030054;28;20059;-75
2023/01/07 04:30:55;;;;;;;1.73;1.40;;;;;;;;;;5030288;28;20057;-74
2023/01/07 04:33:22;;;;;;;1.80;1.60;;;;;;;;;;5029863;28;20129;-74
2023/01/07 04:35:49;;;;;;;2.85;1.60;;;;;;;;;;5014867;28;20052;-75
2023/01/07 04:38:16;;;;;;;1.90;1.60;;;;;;;;;;5030198;28;20119;-75
2023/01/07 04:40:44;;;;;;;1.70;1.60;;;;;;;;;;5030290;28;20075;-75
2023/01/07 04:43:11;;;;;;;2.08;1.70;;;;;;;;;;5029938;28;20087;-75
2023/01/07 04:45:39;;;;;;;2.08;1.80;;;;;;;;;;5029660;28;20550;-75
2023/01/07 04:48:07;;;;;;;2.03;1.55;;;;;;;;;;5030271;28;20136;-75
2023/01/07 04:50:34;;;;;;;1.77;1.50;;;;;;;;;;5030383;28;20063;-75
2023/01/07 04:53:01;;;;;;;1.98;1.60;;;;;;;;;;5033516;28;20049;-75
2023/01/07 04:55:28;;;;;;;2.08;1.88;;;;;;;;;;5032980;28;20049;-75
2023/01/07 04:57:55;;;;;;;1.85;1.70;;;;;;;;;;5033818;28;20176;-75
2023/01/07 05:00:22;;;;;;;2.45;1.50;;;;;;;;;;5033709;28;20144;-75
2023/01/07 05:02:50;;;;;;;2.10;1.77;;;;;;;;;;5033065;28;20509;-74
2023/01/07 05:05:17;;;;;;;2.17;1.67;;;;;;;;;;5023485;28;20053;-75
2023/01/07 05:07:45;;;;;;;1.90;1.60;;;;;;;;;;5013420;28;20132;-75
2023/01/07 05:10:12;;;;;;;1.92;1.67;;;;;;;;;;5013500;28;20096;-75
2023/01/07 05:12:39;;;;;;;2.30;1.80;;;;;;;;;;5013336;28;20141;-75
2023/01/07 05:15:06;;;;;;;1.98;1.55;;;;;;;;;;5021515;28;20054;-75
2023/01/07 05:17:34;;;;;;;2.22;1.80;;;;;;;;;;5033402;28;20116;-74
2023/01/07 05:20:02;;;;;;;2.13;1.70;;;;;;;;;;5033295;28;20132;-75
2023/01/07 05:22:29;;;;;;;2.08;1.55;;;;;;;;;;5033171;28;20057;-75
2023/01/07 05:24:56;;;;;;;2.00;1.70;;;;;;;;;;5032562;28;20057;-75
2023/01/07 05:27:23;;;;;;;2.38;1.52;;;;;;;;;;5030846;28;20049;-75
2023/01/07 05:29:50;;;;;;;2.40;1.60;;;;;;;;;;5013244;28;20137;-74
2023/01/07 05:32:17;;;;;;;2.25;1.70;;;;;;;;;;5013195;28;20053;-75
2023/01/07 05:34:44;;;;;;;1.60;1.50;;;;;;;;;;5017940;28;20127;-75
2023/01/07 05:37:13;;;;;;;2.00;1.60;;;;;;;;;;5032444;28;20049;-75
2023/01/07 05:39:40;;;;;;;2.35;1.77;;;;;;;;;;5032952;28;20081;-75
2023/01/07 05:42:07;;;;;;;1.67;1.50;;;;;;;;;;5032524;28;20140;-75
2023/01/07 05:44:34;;;;;;;1.60;1.50;;;;;;;;;;5032073;28;20049;-75
2023/01/07 05:47:01;;;;;;;2.45;1.65;;;;;;;;;;5031310;28;20060;-75
2023/01/07 05:49:28;;;;;;;2.58;1.80;;;;;;;;;;5032830;28;20060;-75
2023/01/07 05:51:55;;;;;;;3.50;1.70;;;;;;;;;;5032801;28;20494;-75
2023/01/07 05:54:24;;;;;;;1.90;1.60;;;;;;;;;;5030914;28;20648;-75
2023/01/07 05:56:51;;;;;;;1.75;1.60;;;;;;;;;;5012398;28;20422;-75
2023/01/07 05:59:18;;;;;;;2.22;1.70;;;;;;;;;;5012680;28;20414;-75
2023/01/07 06:01:45;;;;;;;1.83;1.60;;;;;;;;;;5012530;28;20136;-75
2023/01/07 06:04:12;;;;;;;1.88;1.50;;;;;;;;;;5011452;28;20056;-74
2023/01/07 06:06:39;;;;;;;2.15;1.60;;;;;;;;;;5033279;28;20050;-75
2023/01/07 06:09:06;;;;;;;1.75;1.50;;;;;;;;;;5032381;28;20068;-75
2023/01/07 06:11:34;;;;;;;2.08;1.50;;;;;;;;;;5032035;28;20057;-75
2023/01/07 06:14:01;;;;;;;2.50;1.70;;;;;;;;;;5032171;28;20064;-75
2023/01/07 06:16:29;;;;;;;1.98;1.50;;;;;;;;;;5013994;28;20542;-75
2023/01/07 06:18:56;;;;;;;2.15;1.80;;;;;;;;;;5016882;28;20046;-75
2023/01/07 06:21:23;;;;;;;1.83;1.60;;;;;;;;;;5032928;28;20128;-75
2023/01/07 06:23:50;;;;;;;2.35;1.50;;;;;;;;;;5032046;28;20053;-74
2023/01/07 06:26:17;;;;;;;1.92;1.50;;;;;;;;;;5031291;28;20056;-75
2023/01/07 06:28:45;;;;;;;2.65;1.63;;;;;;;;;;5031842;28;20085;-75
2023/01/07 06:31:12;;;;;;;1.90;1.50;;;;;;;;;;5033257;28;20125;-75
2023/01/07 06:33:39;;;;;;;1.75;1.35;;;;;;;;;;5031443;28;20067;-75
2023/01/07 06:36:07;;;;;;;2.00;1.70;;;;;;;;;;5029781;28;20406;-75
2023/01/07 06:38:34;;;;;;;2.92;1.60;;;;;;;;;;5031786;28;20045;-74
2023/01/07 06:41:01;;;;;;;2.10;1.63;;;;;;;;;;5032669;28;20137;-75
2023/01/07 06:43:29;;;;;;;2.15;1.58;;;;;;;;;;5031364;28;20053;-75
2023/01/07 06:45:57;;;;;;;2.10;1.63;;;;;;;;;;5030545;28;20052;-75
2023/01/07 06:48:24;;;;;;;1.80;1.40;;;;;;;;;;5031422;28;20057;-75
2023/01/07 06:50:51;;;;;;;1.90;1.48;;;;;;;;;;5031252;28;20553;-75
2023/01/07 06:53:18;;;;;;;2.05;1.60;;;;;;;;;;5030753;28;20475;-75
2023/01/07 06:55:48;;;;;;;2.08;1.60;;;;;;;;;;5031053;28;20461;-75
2023/01/07 06:58:15;;;;;;;1.98;1.40;;;;;;;;;;5031749;28;20053;-75
2023/01/07 07:00:42;;;;;;;2.70;1.60;;;;;;;;;;5031082;28;20149;-75
2023/01/07 07:03:11;;;;;;;1.60;1.40;;;;;;;;;;5030879;28;20136;-75
2023/01/07 07:05:38;;;;;;;2.20;1.48;;;;;;;;;;5021266;28;20136;-75
2023/01/07 07:08:05;;;;;;;1.65;1.45;;;;;;;;;;5011555;28;20064;-75
2023/01/07 07:10:32;;;;;;;1.80;1.50;;;;;;;;;;5011505;28;20069;-75
2023/01/07 07:13:00;;;;;;;2.17;1.73;;;;;;;;;;5011089;28;20467;-75
2023/01/07 07:15:27;;;;;;;2.50;1.52;;;;;;;;;;5012459;28;20548;-75
2023/01/07 07:17:54;;;;;;;1.60;1.30;;;;;;;;;;5016390;28;20410;-75
2023/01/07 07:20:22;;;;;;;1.95;1.42;;;;;;;;;;5025062;28;20521;-75
2023/01/07 07:22:49;;;;;;;1.52;1.40;;;;;;;;;;5020938;28;20140;-75
2023/01/07 07:25:16;;;;;;;1.85;1.40;;;;;;;;;;5020287;28;20128;-75
2023/01/07 07:27:45;;;;;;;2.10;1.48;;;;;;;;;;5019004;28;20483;-75
2023/01/07 07:30:13;;;;;;;2.00;1.50;;;;;;;;;;5021098;28;20057;-75
2023/01/07 07:32:40;;;;;;;2.30;1.58;;;;;;;;;;5021025;28;20050;-74
2023/01/07 07:35:08;;;;;;;2.00;1.50;;;;;;;;;;5019008;28;20133;-75
2023/01/07 07:37:36;;;;;;;1.77;1.45;;;;;;;;;;5019974;28;20042;-75
2023/01/07 07:40:04;;;;;;;1.48;1.33;;;;;;;;;;5030271;28;20140;-74
2023/01/07 07:42:31;;;;;;;2.05;1.50;;;;;;;;;;5030611;28;20509;-75
2023/01/07 07:44:58;;;;;;;1.70;1.27;;;;;;;;;;5029373;28;20113;-75
2023/01/07 07:47:25;;;;;;;4.03;1.50;;;;;;;;;;5010440;28;20125;-75
2023/01/07 07:49:52;;;;;;;3.08;1.33;;;;;;;;;;5010866;28;20072;-75
2023/01/07 07:52:19;;;;;;;2.92;1.60;;;;;;;;;;5010758;28;20092;-75
2023/01/07 07:54:47;;;;;;;1.75;1.48;;;;;;;;;;5011581;28;20084;-75
2023/01/07 07:57:15;;;;;;;2.08;1.50;;;;;;;;;;5030488;28;20088;-75
2023/01/07 07:59:42;;;;;;;1.48;1.20;;;;;;;;;;5030481;28;20053;-75
2023/01/07 08:02:09;;;;;;;2.33;1.63;;;;;;;;;;5030604;28;20049;-75
2023/01/07 08:04:36;;;;;;;2.13;1.45;;;;;;;;;;5030644;28;20088;-75
2023/01/07 08:07:03;;;;;;;2.40;1.80;;;;;;;;;;5023969;28;20076;-75
2023/01/07 08:09:30;;;;;;;2.13;1.40;;;;;;;;;;5030581;28;20136;-75
2023/01/07 08:11:59;;;;;;;1.92;1.58;;;;;;;;;;5030671;28;20141;-75
2023/01/07 08:14:26;;;;;;;2.17;1.50;;;;;;;;;;5030146;28;20049;-74
2023/01/07 08:16:53;;;;;;;1.70;1.50;;;;;;;;;;5030299;28;20056;-74
2023/01/07 08:19:20;;;;;;;2.20;1.48;;;;;;;;;;5030465;28;20132;-75
2023/01/07 08:21:47;;;;;;;1.45;1.35;;;;;;;;;;5029948;28;20132;-74
2023/01/07 08:24:15;;;;;;;1.80;1.40;;;;;;;;;;5029961;28;20057;-75
2023/01/07 08:26:42;;;;;;;1.92;1.50;;;;;;;;;;5031789;28;20056;-75
2023/01/07 08:29:10;;;;;;;1.75;1.42;;;;;;;;;;5034273;28;20143;-74
2023/01/07 08:31:37;;;;;;;3.45;1.60;;;;;;;;;;5032859;28;20053;-74
2023/01/07 08:34:04;;;;;;;1.73;1.30;;;;;;;;;;5033936;28;20056;-74
2023/01/07 08:36:31;;;;;;;1.85;1.52;;;;;;;;;;5032965;28;20047;-74
2023/01/07 08:38:59;;;;;;;1.88;1.50;;;;;;;;;;5025770;28;20056;-75
2023/01/07 08:41:26;;;;;;;1.73;1.30;;;;;;;;;;5024659;28;20128;-74
2023/01/07 08:43:53;;;;;;;4.03;1.50;;;;;;;;;;5024353;28;20049;-74
2023/01/07 08:46:21;;;;;;;2.53;1.67;;;;;;;;;;5024314;28;20136;-74
2023/01/07 08:48:49;;;;;;;1.73;1.40;;;;;;;;;;5024001;28;20056;-75
2023/01/07 08:51:16;;;;;;;2.33;1.52;;;;;;;;;;5022862;28;20045;-75
2023/01/07 08:53:44;;;;;;;2.10;1.20;;;;;;;;;;5022529;28;20049;-74
2023/01/07 08:56:11;;;;;;;1.48;1.25;;;;;;;;;;5026310;28;20056;-75
2023/01/07 08:58:38;;;;;;;1.45;1.20;;;;;;;;;;5023111;28;20064;-74
2023/01/07 09:01:05;;;;;;;1.83;1.45;;;;;;;;;;5022532;28;20123;-75
2023/01/07 09:03:34;;;;;;;1.50;1.27;;;;;;;;;;5019481;28;20482;-75
2023/01/07 09:06:01;;;;;;;1.90;1.40;;;;;;;;;;5026847;28;20077;-75
2023/01/07 09:08:28;;;;;;;1.35;1.17;;;;;;;;;;5021889;28;20053;-75
2023/01/07 09:10:55;;;;;;;2.08;1.40;;;;;;;;;;5024839;28;20049;-75
2023/01/07 09:13:22;;;;;;;1.88;1.38;;;;;;;;;;5023096;28;20056;-75
2023/01/07 09:15:49;;;;;;;2.08;1.30;;;;;;;;;;5023819;28;20565;-75
2023/01/07 09:18:16;;;;;;;2.40;1.30;;;;;;;;;;5023708;28;20041;-75
2023/01/07 09:20:45;;;;;;;2.25;1.63;;;;;;;;;;5024160;28;20057;-74
2023/01/07 09:23:12;;;;;;;1.70;1.30;;;;;;;;;;5021600;28;20505;-74
2023/01/07 09:25:39;;;;;;;1.73;1.40;;;;;;;;;;5023524;28;20093;-75
2023/01/07 09:28:06;;;;;;;1.95;1.40;;;;;;;;;;5024278;28;20052;-75
2023/01/07 09:30:33;;;;;;;1.63;1.38;;;;;;;;;;5025458;28;20550;-74
2023/01/07 09:33:00;;;;;;;2.65;1.50;;;;;;;;;;5022540;28;20045;-74
2023/01/07 09:35:27;;;;;;;2.42;1.42;;;;;;;;;;5023184;28;20555;-75
2023/01/07 09:37:56;;;;;;;1.75;1.40;;;;;;;;;;5022468;28;20124;-75
2023/01/07 09:40:24;;;;;;;1.85;1.27;;;;;;;;;;5022708;28;20061;-75
2023/01/07 09:42:54;;;;;;;2.72;1.52;;;14.80;74.70;;;;;;5021443;28;20060;-74
2023/01/07 09:45:22;;;;;;;1.50;1.20;;;;;;;;;;5022396;28;20048;-75
2023/01/07 09:47:51;;;;;;;1.58;1.30;;;14.90;74.60;;;;;;5023835;28;20076;-75
2023/01/07 09:50:20;;;;;;;2.08;1.27;;;;;;;;;;5021137;28;20132;-74
2023/01/07 09:52:48;;;;;;;1.42;1.23;;;;;;;;;;5022700;28;20136;-74
2023/01/07 09:55:17;;;;;;;1.60;1.30;;;;;;;;;;5027226;28;20049;-74
2023/01/07 09:57:44;;;;;;;1.42;1.10;;;;;;;;;;5019219;28;20129;-74
2023/01/07 10:00:14;;;;;;;1.75;1.20;;;;;;;;;;5021281;28;20132;-75
2023/01/07 10:02:45;;;;;;;2.60;1.25;;;15.00;74.30;;;;;;5021380;28;20552;-75
2023/01/07 10:05:17;;;;;;;2.05;1.33;;;;;;;;;;5019897;28;20049;-75
2023/01/07 10:07:45;;;;;;;2.67;1.40;;;15.00;72.30;;;;;;5023968;28;20053;-74
2023/01/07 10:10:13;;;;;;;1.33;1.00;;;;;;;;;;5022826;28;20152;-74
2023/01/07 10:12:43;;;;;;;1.58;1.25;;;15.00;74.00;;;;;;5019820;28;20051;-74
2023/01/07 10:15:20;;;;;;;1.73;1.20;;;;;;;;;;5028796;28;20061;-74
2023/01/07 10:18:08;;;;;;;1.23;1.10;;;;;;;;;;5047326;28;20465;-74
2023/01/07 10:20:37;;;;;;;1.33;1.20;;;15.00;72.90;;;;;;4980145;28;20057;-74
2023/01/07 10:23:05;;;;;;;0.90;0.90;;;;;;;;;;5028172;28;20107;-74
2023/01/07 10:25:33;;;;;;;1.45;1.15;;;15.20;71.70;;;;;;5022706;28;20140;-74
2023/01/07 10:28:03;;;;;;;3.72;1.25;;;;;;;;;;5022224;28;20049;-75
2023/01/07 10:30:31;;;;;;;1.40;1.17;;;15.10;73.60;;;;;;5014618;28;20064;-74
2023/01/07 10:33:01;;;;;;;1.13;1.00;;;15.20;72.90;;;;;;5013583;28;20058;-75
2023/01/07 10:35:29;;;;;;;2.05;1.10;;;;;;;;;;5023987;28;20045;-74
2023/01/07 10:37:56;;;;;;;1.27;1.17;;;;;;;;;;5019472;28;20050;-74
2023/01/07 10:40:25;;;;;;;2.03;1.40;;;;;;;;;;5031479;28;20045;-74
2023/01/07 10:42:55;;;;;;;1.55;1.27;;;15.20;73.90;;;;;;5031672;28;20140;-75
2023/01/07 10:45:30;;;;;;;1.25;1.10;;;15.20;73.70;;;;;;5031549;28;20494;-75
2023/01/07 10:48:03;;;;;;;1.60;1.20;;;;;;;;;;5031233;28;20414;-74
2023/01/07 10:50:33;;;;;;;1.90;1.10;;;;;;;;;;5031043;28;20064;-74
2023/01/07 10:53:03;;;;;;;2.40;1.20;;;15.20;74.00;;;;;;5031392;28;20053;-74
2023/01/07 10:55:40;;;;;;;1.67;1.23;;;15.20;74.00;;;;;;5031554;28;20144;-75
2023/01/07 10:58:08;;;;;;;2.05;1.20;;;;;;;;;;5011921;28;20550;-74
2023/01/07 11:00:36;;;;;;;1.65;1.20;;;;;;;;;;5037475;28;20458;-74
2023/01/07 11:03:03;;;;;;;2.40;1.50;;;;;;;;;;5030864;28;20057;-74
2023/01/07 11:05:33;;;;;;;2.33;1.30;;;;;;;;;;5014574;28;20112;-74
2023/01/07 11:08:01;;;;;;;1.55;1.00;;;;;;;;;;5012703;28;20445;-75
2023/01/07 11:10:29;;;;;;;1.35;1.25;;;15.10;73.40;;;;;;5011463;28;20500;-74
2023/01/07 11:12:57;;;;;;;1.40;1.15;;;15.20;74.20;;;;;;5014375;28;20054;-76
2023/01/07 11:15:24;;;;;;;1.30;1.10;;;;;;;;;;5021509;28;20406;-74
2023/01/07 11:17:53;;;;;;;1.30;1.00;;;;;;;;;;5012364;28;20132;-74
2023/01/07 11:20:45;;;;;;;2.63;1.08;;;15.00;70.60;;;;;;5029754;28;20049;-74
2023/01/07 11:23:19;;;;;;;1.40;1.13;;;;;;;;;;5030551;28;20132;-74
2023/01/07 11:25:47;;;;;;;1.45;1.00;;;;;;;;;;5031185;28;20148;-73
2023/01/07 11:28:17;;;;;;;2.55;1.20;;;;;;;;;;5030832;28;20045;-74
2023/01/07 11:30:44;;;;;;;1.05;0.95;;;;;;;;;;5031037;28;20084;-74
2023/01/07 11:33:18;;;;;;;1.90;1.10;;;;;;;;;;5030742;28;20545;-74
2023/01/07 11:35:51;;;;;;;1.40;1.10;;;;;;;;;;5026192;28;20053;-76
2023/01/07 11:38:28;;;;;;;1.63;1.20;;;14.90;72.70;;;;;;5013037;28;20128;-74
2023/01/07 11:40:56;;;;;;;2.60;1.00;;;;;;;;;;5015945;28;20133;-74
2023/01/07 11:43:23;;;;;;;1.10;1.00;;;;;;;;;;5030366;28;20065;-75
2023/01/07 11:45:50;;;;;;;1.63;1.15;;;;;;;;;;5015410;28;20064;-74
2023/01/07 11:48:20;;;;;;;3.70;1.30;;;;;;;;;;5010912;28;20056;-75
2023/01/07 11:50:55;;;;;;;1.45;1.08;;;;;;;;;;5011120;28;20084;-74
2023/01/07 11:53:27;;;;;;;1.70;1.00;;;14.90;74.90;;;;;;5021544;28;20062;-74
2023/01/07 11:55:59;;;;;;;1.70;1.23;;;;;;;;;;5010940;28;20411;-74
2023/01/07 11:58:26;;;;;;;2.40;1.30;;;;;;;;;;5021985;28;20498;-74
2023/01/07 12:01:03;;;;;;;1.08;0.98;;;;;;;;;;5032839;28;20081;-74
2023/01/07 12:03:32;;;;;;;2.10;1.10;;;;;;;;;;5033838;28;20085;-74
2023/01/07 12:05:59;;;;;;;1.63;1.10;;;;;;;;;;5031435;28;20064;-75
2023/01/07 12:08:26;;;;;;;2.03;1.10;;;;;;;;;;5017339;28;20501;-75
2023/01/07 12:10:57;;;;;;;5.97;1.23;;;;;;;;;;5018594;28;20045;-74
2023/01/07 12:13:24;;;;;;;1.45;1.15;;;14.80;72.70;;;;;;5029886;28;20133;-74
2023/01/07 12:15:52;;;;;;;1.67;1.20;;;14.80;72.70;;;;;;5032527;28;20123;-74
2023/01/07 12:18:32;;;;;;;2.88;1.10;;;;;;;;;;5034120;28;20049;-74
2023/01/07 12:21:24;;;;;;;1.48;1.08;;;14.80;75.10;;;;;;5029006;28;20453;-75
2023/01/07 12:23:58;;;;;;;2.25;1.30;;;14.70;75.10;;;;;;5033802;28;20061;-74
2023/01/07 12:26:25;;;;;;;1.30;1.10;;;;;;;;;;5034230;28;20053;-74
2023/01/07 12:29:01;;;;;;;0.90;0.90;;;14.70;75.20;;;;;;5033827;28;20053;-74
2023/01/07 12:31:30;;;;;;;2.33;1.00;;;;;;;;;;5033087;28;20140;-75
2023/01/07 12:34:04;;;;;;;1.35;1.05;;;14.70;75.20;;;;;;5014331;28;20129;-74
2023/01/07 12:36:36;;;;;;;1.38;1.27;;;14.70;73.00;;;;;;5019709;28;20061;-74
2023/01/07 12:39:04;;;;;;;1.95;1.17;;;14.70;75.20;;;;;;5033973;28;20052;-74
2023/01/07 12:41:32;;;;;;;1.08;0.98;;;;;;;;;;5033915;28;20060;-75
2023/01/07 12:44:01;;;;;;;1.85;1.10;;;14.70;74.60;;;;;;5033792;28;20049;-74
2023/01/07 12:46:29;;;;;;;1.30;1.10;;;;;;;;;;5033798;28;20478;-74
2023/01/07 12:48:59;;;;;;;1.30;1.02;;;;;;;;;;5030544;28;20056;-75
2023/01/07 12:51:27;;;;;;;1.40;1.13;;;;;;;;;;5020691;28;20054;-75
2023/01/07 12:53:55;;;;;;;2.17;1.00;;;;;;;;;;5013589;28;20142;-74
2023/01/07 12:56:23;;;;;;;1.33;1.08;;;;;;;;;;5019076;28;20045;-74
2023/01/07 12:58:51;;;;;;;0.95;0.90;;;;;;;;;;5024399;28;20060;-74
2023/01/07 13:01:22;;;;;;;1.20;1.10;;;14.60;74.90;;;;;;5023796;28;20049;-75
2023/01/07 13:03:55;;;;;;;1.42;1.25;;;;;;;;;;5024584;28;20057;-74
2023/01/07 13:06:23;;;;;;;1.33;0.95;;;;;;;;;;5023440;28;20132;-74
2023/01/07 13:08:51;;;;;;;1.23;1.00;;;;;;;;;;5023567;28;20072;-74
2023/01/07 13:12:41;;;;;;;0.90;0.90;;;14.60;75.30;;;;;;5023013;28;20100;-74
2023/01/07 13:14:17;;;;;;;1.33;1.08;;;14.60;73.30;;;;;;5039200;28;20062;-74
2023/01/07 13:16:44;;;;;;;0.80;0.80;;;;;;;;;;5024903;28;20451;-74
2023/01/07 13:19:11;;;;;;;1.13;1.02;;;;;;;;;;5022765;28;20077;-74
2023/01/07 13:21:38;;;;;;;1.38;1.20;;;;;;;;;;5030537;28;20136;-74
2023/01/07 13:24:13;;;;;;;1.48;1.10;;;14.60;75.40;;;;;;5032942;28;20136;-74
2023/01/07 13:26:44;;;;;;;1.10;1.00;;;;;;;;;;5033125;28;20583;-74
2023/01/07 13:29:14;;;;;;;2.75;1.08;;;;;;;;;;5032708;28;20064;-74
2023/01/07 13:32:02;;;;;;;1.20;1.00;;;;;;;;;;5028490;28;20071;-75
2023/01/07 13:34:36;;;;;;;1.42;1.10;;;14.60;75.50;;;;;;5007235;28;20060;-76
2023/01/07 13:37:16;;;;;;;1.10;1.00;;;;;;;;;;5027501;28;20183;-74
2023/01/07 13:39:48;;;;;;;1.63;1.23;;;;;;;;;;5032980;28;20053;-75
2023/01/07 13:42:22;;;;;;;1.23;0.90;;;;;;;;;;5032016;28;20064;-77
2023/01/07 13:44:58;;;;;;;1.10;1.00;;;14.40;75.30;;;;;;5032854;28;20140;-75
2023/01/07 13:47:26;;;;;;;2.50;0.98;;;;;;;;;;5015546;28;20132;-74
2023/01/07 13:49:54;;;;;;;1.63;1.00;;;;;;;;;;5012212;28;20124;-74
2023/01/07 13:52:21;;;;;;;1.83;1.10;;;;;;;;;;5012885;28;20053;-74
2023/01/07 13:54:59;;;;;;;1.25;1.00;;;;;;;;;;5012561;28;20060;-74
2023/01/07 13:57:46;;;;;;;1.27;1.10;;;;;;;;;;5029039;28;20053;-74
2023/01/07 14:00:38;;;;;;;1.38;0.95;;;14.40;71.70;;;;;;5032223;28;20132;-74
2023/01/07 14:03:05;;;;;;;1.00;0.85;;;;;;;;;;5032251;28;20057;-74
2023/01/07 14:05:32;;;;;;;1.02;0.80;;;;;;;;;;5032489;28;20057;-74
2023/01/07 14:08:00;;;;;;;1.98;1.05;;;;;;;;;;5028845;28;20049;-74
2023/01/07 14:10:28;;;;;;;1.52;1.10;;;14.50;75.40;;;;;;5017450;28;20045;-74
2023/01/07 14:13:16;;;;;;;1.55;1.10;;;14.40;75.40;;;;;;5031719;28;20437;-74
2023/01/07 14:16:08;;;;;;;4.10;1.20;;;14.50;75.50;;;;;;5032004;28;20672;-74
2023/01/07 14:18:57;;;;;;;1.58;0.95;;;14.40;75.60;;;;;;5031992;28;20140;-74
2023/01/07 14:21:30;;;;;;;1.30;0.90;;;;;;;;;;5032202;28;20057;-74
2023/01/07 14:24:01;;;;;;;1.42;0.90;;;;;;;;;;5030328;28;20057;-74
2023/01/07 14:26:29;;;;;;;1.10;1.00;;;;;;;;;;5032157;28;20057;-74
2023/01/07 14:29:24;;;;;;;1.50;1.20;;;;;;;;;;5031848;28;20130;-74
2023/01/07 14:31:52;;;;;;;1.10;0.90;;;;;;;;;;4985437;28;20132;-74
2023/01/07 14:34:20;;;;;;;1.40;1.25;;;14.40;75.10;;;;;;5013185;28;20058;-74
2023/01/07 14:37:10;;;;;;;1.10;1.00;;;;;;;;;;5019678;28;20049;-74
2023/01/07 14:39:37;;;;;;;1.63;1.00;;;;;;;;;;5031614;28;20116;-74
2023/01/07 14:42:41;;;;;;;1.25;0.90;;;14.50;71.80;;;;;;5031805;28;20084;-74